createdAt,value
2019-03-25T00:01:59.329Z,67.37
2019-03-25T00:04:33.868Z,68.04
2019-03-25T00:07:08.438Z,68.58
2019-03-25T00:09:44.508Z,68.43
2019-03-25T00:12:20.689Z,68.39
2019-03-25T00:14:57.301Z,68.79
2019-03-25T00:17:31.792Z,69.34
2019-03-25T00:20:06.750Z,70.02
2019-03-25T00:22:41.284Z,70.44
2019-03-25T00:25:15.799Z,71.75
2019-03-25T00:27:50.326Z,71.94
2019-03-25T00:30:24.926Z,72.54
2019-03-25T00:32:59.562Z,72.62
2019-03-25T00:35:36.003Z,72.95
2019-03-25T00:38:10.743Z,73.30
2019-03-25T00:40:45.363Z,73.56
2019-03-25T00:43:21.340Z,73.68
2019-03-25T00:45:56.145Z,74.17
2019-03-25T00:48:30.776Z,74.50
2019-03-25T00:51:07.559Z,74.48
2019-03-25T00:53:42.100Z,74.28
2019-03-25T00:56:16.916Z,73.69
2019-03-25T00:58:51.448Z,73.73
2019-03-25T01:01:26.577Z,73.76
2019-03-25T01:04:01.341Z,73.51
2019-03-25T01:06:37.672Z,73.91
2019-03-25T01:09:14.038Z,73.80
2019-03-25T01:11:49.468Z,73.78
2019-03-25T01:14:24.464Z,73.22
2019-03-25T01:16:59.355Z,72.69
2019-03-25T01:19:33.957Z,72.46
2019-03-25T01:22:08.601Z,72.51
2019-03-25T01:24:43.354Z,72.55
2019-03-25T01:27:19.656Z,72.31
2019-03-25T01:29:56.273Z,72.34
2019-03-25T01:32:32.590Z,71.64
2019-03-25T01:35:07.543Z,71.60
2019-03-25T01:37:42.194Z,71.35
2019-03-25T01:40:17.027Z,70.87
2019-03-25T01:42:51.707Z,70.46
2019-03-25T01:45:26.167Z,70.00
2019-03-25T01:48:00.803Z,70.35
2019-03-25T01:50:35.438Z,70.37
2019-03-25T01:53:10.398Z,70.39
2019-03-25T01:55:45.298Z,70.75
2019-03-25T01:58:20.193Z,71.05
2019-03-25T02:00:56.493Z,71.24
2019-03-25T02:03:31.226Z,71.29
2019-03-25T02:06:05.763Z,72.03
2019-03-25T02:08:40.674Z,72.36
2019-03-25T02:11:16.753Z,72.48
2019-03-25T02:13:51.365Z,72.09
2019-03-25T02:16:25.922Z,71.91
2019-03-25T02:19:01.036Z,72.05
2019-03-25T02:21:35.972Z,72.12
2019-03-25T02:24:10.534Z,71.75
2019-03-25T02:26:45.014Z,71.73
2019-03-25T02:29:19.704Z,71.44
2019-03-25T02:31:56.055Z,71.65
2019-03-25T02:34:32.067Z,73.27
2019-03-25T02:37:06.588Z,73.56
2019-03-25T02:39:41.215Z,74.00
2019-03-25T02:42:15.835Z,74.60
2019-03-25T02:44:52.071Z,76.14
2019-03-25T02:47:26.621Z,77.91
2019-03-25T02:50:03.324Z,78.73
2019-03-25T02:52:39.720Z,79.47
2019-03-25T02:55:16.424Z,79.94
2019-03-25T02:57:52.715Z,80.68
2019-03-25T03:00:40.845Z,81.18
2019-03-25T03:03:15.594Z,80.09
2019-03-25T03:05:50.323Z,80.34
2019-03-25T03:08:24.825Z,80.21
2019-03-25T03:10:59.405Z,80.57
2019-03-25T03:13:36.841Z,80.47
2019-03-25T03:16:11.747Z,80.19
2019-03-25T03:18:46.217Z,80.90
2019-03-25T03:21:21.755Z,81.06
2019-03-25T03:23:56.222Z,81.26
2019-03-25T03:26:30.935Z,82.29
2019-03-25T03:29:05.565Z,82.32
2019-03-25T03:31:40.389Z,82.15
2019-03-25T03:34:14.973Z,82.59
2019-03-25T03:36:51.038Z,83.04
2019-03-25T03:39:25.666Z,83.85
2019-03-25T03:42:02.062Z,84.42
2019-03-25T03:44:36.742Z,84.71
2019-03-25T03:47:11.389Z,84.19
2019-03-25T03:49:46.015Z,84.68
2019-03-25T03:52:21.460Z,85.02
2019-03-25T03:54:56.204Z,85.39
2019-03-25T03:57:32.701Z,85.45
2019-03-25T04:00:08.125Z,85.39
2019-03-25T04:02:44.672Z,85.58
2019-03-25T04:05:19.196Z,86.27
2019-03-25T04:07:53.783Z,86.18
2019-03-25T04:10:28.552Z,86.78
2019-03-25T04:13:03.191Z,86.82
2019-03-25T04:15:37.682Z,87.39
2019-03-25T04:18:12.433Z,87.91
2019-03-25T04:20:46.995Z,87.58
2019-03-25T04:23:23.015Z,88.11
2019-03-25T04:25:57.926Z,87.85
2019-03-25T04:28:32.693Z,87.81
2019-03-25T04:31:07.300Z,87.96
2019-03-25T04:33:41.865Z,89.05
2019-03-25T04:36:16.458Z,89.04
2019-03-25T04:38:52.722Z,89.80
2019-03-25T04:41:27.637Z,89.98
2019-03-25T04:44:04.384Z,89.51
2019-03-25T04:46:38.948Z,89.15
2019-03-25T04:49:13.509Z,89.17
2019-03-25T04:51:48.094Z,89.63
2019-03-25T04:54:24.159Z,90.30
2019-03-25T04:56:58.788Z,90.59
2019-03-25T04:59:33.705Z,90.48
2019-03-25T05:02:08.259Z,90.34
2019-03-25T05:04:43.009Z,90.71
2019-03-25T05:07:18.052Z,90.47
2019-03-25T05:09:52.603Z,90.78
2019-03-25T05:12:27.008Z,91.11
2019-03-25T05:15:01.598Z,91.33
2019-03-25T05:17:36.230Z,90.89
2019-03-25T05:20:12.268Z,91.00
2019-03-25T05:22:48.641Z,91.22
2019-03-25T05:25:23.095Z,91.09
2019-03-25T05:27:57.816Z,90.95
2019-03-25T05:30:32.307Z,90.61
2019-03-25T05:33:06.854Z,90.41
2019-03-25T05:35:41.463Z,90.54
2019-03-25T05:38:16.217Z,90.56
2019-03-25T05:40:52.246Z,89.64
2019-03-25T05:43:28.823Z,89.45
2019-03-25T05:46:03.451Z,89.10
2019-03-25T05:48:37.975Z,89.50
2019-03-25T05:51:12.593Z,89.78
2019-03-25T05:53:47.363Z,90.36
2019-03-25T06:00:14.718Z,90.15
2019-03-25T06:02:49.991Z,90.16
2019-03-25T06:05:24.515Z,89.13
2019-03-25T06:07:59.157Z,88.92
2019-03-25T06:10:33.612Z,89.12
2019-03-25T06:13:08.200Z,89.16
2019-03-25T06:15:42.804Z,88.45
2019-03-25T06:18:20.405Z,88.10
2019-03-25T06:20:55.130Z,87.23
2019-03-25T06:23:29.705Z,86.57
2019-03-25T06:26:04.601Z,83.11
2019-03-25T06:28:39.157Z,78.57
2019-03-25T06:31:14.124Z,73.47
2019-03-25T06:33:48.700Z,74.65
2019-03-25T06:36:23.378Z,77.14
2019-03-25T06:38:58.057Z,78.57
2019-03-25T06:41:32.514Z,79.08
2019-03-25T06:44:07.133Z,78.88
2019-03-25T06:46:42.203Z,77.61
2019-03-25T06:49:16.714Z,73.67
2019-03-25T06:51:51.235Z,68.15
2019-03-25T06:54:25.715Z,67.41
2019-03-25T06:57:00.699Z,68.67
2019-03-25T06:59:35.093Z,65.32
2019-03-25T07:02:09.542Z,65.01
2019-03-25T07:04:44.412Z,60.81
2019-03-25T07:07:18.991Z,56.85
2019-03-25T07:09:55.312Z,63.09
2019-03-25T07:12:31.580Z,65.63
2019-03-25T07:15:07.466Z,61.91
2019-03-25T07:17:42.489Z,58.99
2019-03-25T07:20:18.964Z,61.51
2019-03-25T07:22:54.263Z,57.62
2019-03-25T07:25:29.205Z,56.05
2019-03-25T07:28:03.780Z,56.17
2019-03-25T07:30:38.321Z,58.98
2019-03-25T07:33:12.896Z,57.33
2019-03-25T07:35:47.513Z,59.14
2019-03-25T07:38:22.024Z,59.23
2019-03-25T07:40:56.562Z,62.01
2019-03-25T07:43:31.183Z,64.63
2019-03-25T07:46:05.909Z,63.82
2019-03-25T07:48:41.971Z,66.50
2019-03-25T07:51:16.588Z,68.03
2019-03-25T07:53:52.532Z,68.58
2019-03-25T07:56:27.376Z,69.89
2019-03-25T07:59:02.112Z,71.17
2019-03-25T08:01:36.743Z,73.94
2019-03-25T08:04:11.506Z,73.34
2019-03-25T08:06:47.743Z,74.80
2019-03-25T08:09:24.219Z,75.14
2019-03-25T08:11:58.873Z,76.00
2019-03-25T08:14:33.684Z,77.09
2019-03-25T08:17:09.541Z,78.32
2019-03-25T08:19:44.463Z,78.42
2019-03-25T08:22:19.074Z,80.18
2019-03-25T08:24:53.743Z,81.10
2019-03-25T08:27:28.325Z,81.52
2019-03-25T08:30:05.048Z,81.94
2019-03-25T08:32:42.186Z,82.97
2019-03-25T08:35:17.116Z,82.98
2019-03-25T08:37:51.760Z,83.37
2019-03-25T08:40:26.364Z,83.90
2019-03-25T08:43:02.745Z,84.34
2019-03-25T08:45:37.485Z,84.44
2019-03-25T08:48:12.142Z,84.81
2019-03-25T08:50:47.124Z,85.15
2019-03-25T08:53:21.827Z,84.99
2019-03-25T08:55:56.478Z,83.54
2019-03-25T08:58:32.405Z,82.23
2019-03-25T09:01:06.999Z,81.64
2019-03-25T09:03:41.811Z,81.78
2019-03-25T09:06:16.827Z,82.31
2019-03-25T09:08:53.588Z,80.43
2019-03-25T09:11:28.346Z,81.66
2019-03-25T09:14:04.878Z,82.17
2019-03-25T09:16:39.535Z,82.89
2019-03-25T09:19:15.960Z,81.95
2019-03-25T09:21:50.663Z,82.29
2019-03-25T09:24:26.644Z,82.44
2019-03-25T09:27:01.499Z,82.52
2019-03-25T09:29:36.117Z,81.96
2019-03-25T09:32:12.528Z,82.49
2019-03-25T09:34:49.085Z,83.35
2019-03-25T09:37:24.161Z,83.34
2019-03-25T09:39:59.095Z,83.20
2019-03-25T09:42:33.578Z,83.06
2019-03-25T09:45:11.827Z,83.23
2019-03-25T09:48:12.073Z,82.73
2019-03-25T09:50:52.625Z,82.24
2019-03-25T09:53:39.167Z,80.05
2019-03-25T09:56:19.303Z,78.70
2019-03-25T09:59:14.907Z,76.92
2019-03-25T10:02:11.615Z,76.18
2019-03-25T10:05:16.320Z,76.28
2019-03-25T10:08:05.613Z,74.83
2019-03-25T10:11:07.797Z,76.29
2019-03-25T10:14:16.773Z,77.41
2019-03-25T10:16:53.458Z,77.67
2019-03-25T10:19:28.608Z,77.61
2019-03-25T10:22:03.448Z,77.11
2019-03-25T10:24:38.297Z,77.38
2019-03-25T10:27:13.000Z,78.05
2019-03-25T10:29:49.010Z,77.88
2019-03-25T10:32:24.288Z,77.40
2019-03-25T10:34:59.117Z,76.60
2019-03-25T10:37:35.621Z,76.06
2019-03-25T10:40:11.450Z,75.39
2019-03-25T10:42:46.171Z,74.90
2019-03-25T10:45:21.512Z,76.01
2019-03-25T10:47:56.686Z,75.30
2019-03-25T10:50:31.422Z,75.13
2019-03-25T10:53:06.305Z,75.62
2019-03-25T10:55:42.862Z,75.45
2019-03-25T10:58:17.717Z,77.20
2019-03-25T11:00:52.444Z,79.08
2019-03-25T11:03:27.061Z,78.57
2019-03-25T11:06:01.630Z,78.92
2019-03-25T11:08:37.630Z,79.22
2019-03-25T11:11:13.005Z,78.77
2019-03-25T11:13:47.580Z,78.47
2019-03-25T11:16:22.563Z,79.43
2019-03-25T11:18:57.998Z,79.52
2019-03-25T11:21:32.896Z,80.06
2019-03-25T11:24:07.463Z,79.39
2019-03-25T11:26:44.335Z,80.23
2019-03-25T11:29:19.277Z,80.67
2019-03-25T11:31:54.349Z,79.77
2019-03-25T11:34:29.295Z,79.86
2019-03-25T11:37:03.905Z,79.39
2019-03-25T11:39:40.669Z,79.72
2019-03-25T11:42:15.371Z,78.63
2019-03-25T11:44:50.102Z,78.89
2019-03-25T11:47:24.730Z,78.13
2019-03-25T11:49:59.774Z,76.92
2019-03-25T11:52:34.614Z,74.66
2019-03-25T11:55:09.762Z,74.30
2019-03-25T11:57:44.391Z,73.05
2019-03-25T12:00:19.675Z,70.47
2019-03-25T12:02:54.278Z,72.50
2019-03-25T12:05:29.033Z,73.01
2019-03-25T12:08:03.698Z,71.77
2019-03-25T12:10:38.619Z,71.98
2019-03-25T12:13:13.753Z,72.12
2019-03-25T12:15:48.177Z,70.62
2019-03-25T12:18:24.206Z,67.89
2019-03-25T12:20:58.916Z,66.58
2019-03-25T12:23:33.707Z,68.13
2019-03-25T12:26:11.385Z,67.47
2019-03-25T12:28:46.100Z,68.33
2019-03-25T12:31:21.054Z,67.86
2019-03-25T12:33:57.117Z,66.95
2019-03-25T12:36:33.024Z,67.23
2019-03-25T12:39:09.422Z,65.05
2019-03-25T12:41:44.163Z,63.52
2019-03-25T12:44:21.047Z,63.08
2019-03-25T12:46:57.265Z,62.13
2019-03-25T12:49:31.936Z,62.41
2019-03-25T12:52:08.455Z,60.40
2019-03-25T12:54:43.087Z,60.42
2019-03-25T12:57:19.547Z,59.54
2019-03-25T12:59:56.142Z,57.81
2019-03-25T13:02:31.239Z,58.47
2019-03-25T13:05:06.241Z,56.56
2019-03-25T13:07:41.388Z,56.19
2019-03-25T13:10:18.039Z,57.07
2019-03-25T13:12:54.239Z,56.51
2019-03-25T13:15:29.478Z,56.28
2019-03-25T13:18:04.286Z,57.28
2019-03-25T13:20:38.872Z,56.84
2019-03-25T13:23:13.806Z,57.68
2019-03-25T13:25:48.484Z,58.91
2019-03-25T13:28:23.469Z,58.96
2019-03-25T13:30:59.937Z,59.32
2019-03-25T13:33:34.610Z,61.85
2019-03-25T13:36:09.633Z,68.62
2019-03-25T13:38:44.496Z,70.23
2019-03-25T13:41:20.884Z,71.35
2019-03-25T13:43:55.670Z,72.61
2019-03-25T13:46:30.512Z,73.71
2019-03-25T13:49:05.163Z,73.29
2019-03-25T13:51:41.804Z,71.60
2019-03-25T13:54:16.524Z,72.71
2019-03-25T13:56:51.714Z,73.48
2019-03-25T13:59:27.529Z,72.75
2019-03-25T14:02:02.257Z,74.10
2019-03-25T14:04:36.890Z,74.71
2019-03-25T14:07:11.591Z,74.53
2019-03-25T14:09:47.328Z,75.07
2019-03-25T14:12:23.034Z,75.29
2019-03-25T14:14:57.563Z,73.78
2019-03-25T14:17:32.560Z,72.78
2019-03-25T14:20:09.150Z,73.83
2019-03-25T14:22:43.850Z,75.86
2019-03-25T14:25:21.653Z,74.99
2019-03-25T14:27:59.202Z,75.97
2019-03-25T14:30:35.630Z,75.58
2019-03-25T14:33:10.603Z,75.93
2019-03-25T14:35:45.088Z,75.88
2019-03-25T14:38:19.761Z,76.33
2019-03-25T14:40:54.259Z,72.97
2019-03-25T14:43:29.024Z,72.45
2019-03-25T14:46:05.410Z,71.95
2019-03-25T14:48:40.093Z,72.79
2019-03-25T14:51:14.683Z,73.67
2019-03-25T14:53:50.999Z,76.51
2019-03-25T14:56:25.933Z,77.49
2019-03-25T14:59:00.640Z,77.61
2019-03-25T15:01:37.906Z,77.38
2019-03-25T15:04:12.465Z,78.18
2019-03-25T15:06:48.591Z,78.02
2019-03-25T15:09:23.228Z,78.95
2019-03-25T15:11:57.844Z,79.93
2019-03-25T15:14:33.506Z,79.94
2019-03-25T15:17:10.114Z,79.16
2019-03-25T15:19:46.602Z,80.09
2019-03-25T15:22:21.469Z,80.67
2019-03-25T15:24:56.195Z,80.80
2019-03-25T15:27:33.693Z,80.54
2019-03-25T15:30:09.783Z,79.28
2019-03-25T15:32:44.315Z,79.12
2019-03-25T15:35:18.951Z,77.47
2019-03-25T15:37:53.670Z,77.63
2019-03-25T15:40:28.328Z,77.07
2019-03-25T15:43:03.718Z,78.34
2019-03-25T15:45:38.519Z,77.20
2019-03-25T15:48:13.365Z,77.73
2019-03-25T15:50:49.704Z,77.74
2019-03-25T15:53:24.360Z,79.05
2019-03-25T15:56:00.825Z,79.36
2019-03-25T15:58:35.859Z,79.64
2019-03-25T16:01:12.290Z,79.23
2019-03-25T16:03:46.837Z,79.25
2019-03-25T16:06:22.449Z,79.54
2019-03-25T16:08:58.828Z,80.10
2019-03-25T16:11:35.843Z,79.53
2019-03-25T16:14:10.423Z,79.55
2019-03-25T16:16:44.902Z,80.12
2019-03-25T16:19:19.528Z,80.89
2019-03-25T16:21:56.157Z,80.85
2019-03-25T16:24:31.118Z,80.11
2019-03-25T16:27:07.967Z,80.50
2019-03-25T16:29:43.465Z,80.75
2019-03-25T16:32:18.430Z,80.60
2019-03-25T16:34:52.962Z,79.75
2019-03-25T16:37:28.971Z,79.86
2019-03-25T16:40:03.805Z,80.76
2019-03-25T16:42:40.198Z,80.90
2019-03-25T16:45:15.036Z,80.06
2019-03-25T16:47:51.528Z,80.01
2019-03-25T16:50:28.150Z,79.95
2019-03-25T16:53:04.593Z,80.22
2019-03-25T16:55:39.167Z,81.01
2019-03-25T16:58:18.677Z,81.20
2019-03-25T17:00:54.881Z,80.60
2019-03-25T17:03:29.565Z,81.44
2019-03-25T17:06:05.669Z,82.11
2019-03-25T17:08:40.265Z,81.72
2019-03-25T17:11:15.800Z,82.29
2019-03-25T17:13:52.299Z,80.97
2019-03-25T17:16:28.674Z,81.27
2019-03-25T17:19:03.333Z,82.03
2019-03-25T17:21:37.988Z,81.90
2019-03-25T17:24:14.202Z,82.79
2019-03-25T17:26:50.553Z,83.60
2019-03-25T17:29:25.903Z,83.77
2019-03-25T17:32:00.534Z,83.62
2019-03-25T17:34:35.284Z,83.60
2019-03-25T17:37:09.948Z,83.93
2019-03-25T17:39:45.355Z,84.19
2019-03-25T17:42:20.087Z,84.92
2019-03-25T17:44:56.281Z,84.73
2019-03-25T17:47:32.710Z,84.29
2019-03-25T17:50:07.955Z,84.31
2019-03-25T17:52:42.941Z,85.10
2019-03-25T17:55:18.041Z,86.30
2019-03-25T17:57:52.874Z,86.21
2019-03-25T18:01:32.089Z,85.55
2019-03-25T18:04:05.382Z,85.75
2019-03-25T18:06:40.019Z,86.00
2019-03-25T18:09:14.734Z,85.72
2019-03-25T18:11:49.594Z,86.08
2019-03-25T18:14:28.705Z,85.63
2019-03-25T18:17:05.170Z,85.17
2019-03-25T18:19:39.730Z,85.57
2019-03-25T18:22:14.401Z,85.53
2019-03-25T18:24:49.764Z,85.79
2019-03-25T18:27:25.385Z,86.28
2019-03-25T18:30:01.230Z,86.35
2019-03-25T18:32:35.895Z,86.58
2019-03-25T18:35:14.781Z,86.70
2019-03-25T18:37:49.766Z,87.11
2019-03-25T18:40:26.399Z,86.79
2019-03-25T18:43:01.068Z,86.67
2019-03-25T18:45:37.639Z,87.13
2019-03-25T18:48:13.247Z,87.01
2019-03-25T18:50:50.753Z,87.73
2019-03-25T18:53:27.127Z,87.88
2019-03-25T18:56:04.524Z,88.11
2019-03-25T18:58:40.202Z,88.55
2019-03-25T19:01:17.759Z,88.07
2019-03-25T19:03:55.619Z,87.95
2019-03-25T19:06:30.757Z,88.13
2019-03-25T19:09:07.487Z,88.11
2019-03-25T19:11:43.848Z,87.72
2019-03-25T19:14:20.223Z,87.63
2019-03-25T19:16:55.921Z,87.92
2019-03-25T19:19:32.264Z,87.96
2019-03-25T19:22:06.918Z,88.26
2019-03-25T19:24:41.529Z,88.03
2019-03-25T19:27:17.619Z,86.98
2019-03-25T19:29:52.244Z,87.17
2019-03-25T19:32:27.413Z,87.05
2019-03-25T19:35:05.071Z,87.13
2019-03-25T19:37:40.988Z,87.03
2019-03-25T19:40:19.184Z,86.60
2019-03-25T19:42:55.438Z,86.76
2019-03-25T19:45:30.007Z,86.57
2019-03-25T19:48:04.979Z,87.33
2019-03-25T19:50:39.701Z,87.70
2019-03-25T19:53:19.239Z,87.97
2019-03-25T19:55:51.105Z,87.80
2019-03-25T19:58:29.399Z,87.94
2019-03-25T20:01:06.324Z,88.21
2019-03-25T20:03:42.692Z,88.94
2019-03-25T20:06:26.110Z,89.22
2019-03-25T20:08:54.879Z,88.39
2019-03-25T20:11:29.708Z,89.25
2019-03-25T20:14:04.874Z,88.71
2019-03-25T20:16:44.231Z,88.85
2019-03-25T20:19:20.835Z,88.78
2019-03-25T20:21:55.839Z,87.47
2019-03-25T20:24:33.682Z,88.03
2019-03-25T20:27:08.137Z,88.63
2019-03-25T20:29:42.667Z,88.85
2019-03-25T20:32:30.977Z,89.34
2019-03-25T20:34:54.519Z,89.71
2019-03-25T20:37:29.225Z,90.35
2019-03-25T20:40:06.595Z,90.50
2019-03-25T20:42:41.300Z,90.34
2019-03-25T20:45:18.597Z,90.76
2019-03-25T20:47:53.537Z,90.61
2019-03-25T20:50:30.065Z,90.59
2019-03-25T20:53:05.091Z,91.04
2019-03-25T20:55:41.694Z,91.36
2019-03-25T20:58:17.911Z,91.98
2019-03-25T21:00:57.611Z,92.25
2019-03-25T21:03:32.351Z,92.46
2019-03-25T21:06:08.797Z,92.70
2019-03-25T21:08:43.544Z,92.82
2019-03-25T21:11:18.171Z,92.90
2019-03-25T21:13:53.157Z,93.19
2019-03-25T21:16:27.692Z,93.35
2019-03-25T21:19:04.103Z,93.86
2019-03-25T21:21:38.629Z,94.22
2019-03-25T21:24:13.117Z,94.54
2019-03-25T21:26:48.287Z,94.84
2019-03-25T21:29:22.826Z,95.06
2019-03-25T21:31:57.963Z,95.08
2019-03-25T21:34:32.691Z,94.95
2019-03-25T21:37:07.675Z,95.10
2019-03-25T21:39:42.148Z,95.39
2019-03-25T21:42:16.622Z,95.68
2019-03-25T21:44:53.106Z,95.83
2019-03-25T21:47:27.886Z,95.82
2019-03-25T21:50:02.613Z,96.01
2019-03-25T21:52:38.424Z,96.33
2019-03-25T21:55:12.860Z,96.45
2019-03-25T21:57:49.312Z,96.60
2019-03-25T22:00:24.092Z,96.68
2019-03-25T22:03:11.403Z,96.81
2019-03-25T22:05:35.362Z,96.87
2019-03-25T22:08:09.998Z,96.91
2019-03-25T22:10:46.392Z,96.99
2019-03-25T22:13:20.873Z,97.10
2019-03-25T22:15:55.512Z,97.20
2019-03-25T22:18:30.845Z,97.16
2019-03-25T22:21:05.869Z,97.32
2019-03-25T22:23:40.460Z,97.34
2019-03-25T22:26:14.924Z,97.30
2019-03-25T22:28:51.222Z,97.29
2019-03-25T22:31:26.134Z,97.46
2019-03-25T22:34:00.690Z,97.69
2019-03-25T22:36:35.077Z,97.74
2019-03-25T22:39:10.406Z,97.91
2019-03-25T22:41:45.149Z,98.07
2019-03-25T22:44:19.767Z,98.23
2019-03-25T22:46:54.382Z,98.25
2019-03-25T22:49:29.233Z,98.40
2019-03-25T22:52:03.960Z,98.63
2019-03-25T22:54:38.406Z,98.68
2019-03-25T22:57:12.910Z,98.68
2019-03-25T22:59:47.534Z,98.70
2019-03-25T23:02:22.472Z,98.85
2019-03-25T23:04:58.631Z,99.01
2019-03-25T23:07:33.984Z,99.13
2019-03-25T23:10:10.369Z,99.23
2019-03-25T23:12:44.969Z,99.27
2019-03-25T23:15:19.633Z,99.33
2019-03-25T23:17:54.426Z,99.41
2019-03-25T23:20:29.005Z,99.45
2019-03-25T23:23:03.693Z,99.51
2019-03-25T23:25:38.304Z,99.51
2019-03-25T23:28:12.952Z,99.58
2019-03-25T23:30:49.498Z,99.61
2019-03-25T23:33:25.867Z,99.66
2019-03-25T23:36:00.525Z,99.69
2019-03-25T23:38:36.280Z,99.80
2019-03-25T23:41:10.915Z,99.81
2019-03-25T23:43:45.534Z,99.83
2019-03-25T23:46:20.047Z,99.97
2019-03-25T23:48:54.856Z,100.00
2019-03-25T23:51:29.748Z,100.00
2019-03-25T23:54:15.993Z,100.00
2019-03-25T23:56:50.618Z,100.00
2019-03-25T23:59:25.479Z,100.00
